Time;durP1;ratioP1;P1;durP2;ratioP2;P2;SDS_P1;SDS_P2;PMS_P1;PMS_P2;Temp;Humidity;BMP_temperature;BMP_pressure;BME280_temperature;BME280_humidity;BME280_pressure;Samples;Min_cycle;Max_cycle;Signal;HPM_P1;HPM_P2
2020/12/23 00:01:04;;;;;;;;;;;23.50;56.70;;;;;;5135773;27;19914;-88
2020/12/23 00:03:31;;;;;;;;;;;23.50;56.50;;;;;;5134957;27;20262;-89
2020/12/23 00:05:58;;;;;;;;;;;23.50;56.00;;;;;;5098529;28;19999;-83
2020/12/23 00:08:24;;;;;;;;;;;23.40;56.90;;;;;;5113491;28;19960;-82
2020/12/23 00:10:51;;;;;;;;;;;23.60;56.80;;;;;;5113729;28;20383;-82
2020/12/23 00:13:18;;;;;;;;;;;23.90;56.50;;;;;;5112414;28;20321;-82
2020/12/23 00:15:45;;;;;;;;;;;24.00;55.20;;;;;;5113181;28;20362;-83
2020/12/23 00:18:12;;;;;;;;;;;23.90;55.50;;;;;;5095397;28;19931;-83
2020/12/23 00:20:38;;;;;;;;;;;23.80;56.20;;;;;;5111460;28;19955;-83
2020/12/23 00:23:06;;;;;;;;;;;23.70;56.00;;;;;;5104024;28;20216;-82
2020/12/23 00:25:32;;;;;;;;;;;23.60;56.70;;;;;;5093636;28;19908;-78
2020/12/23 00:27:59;;;;;;;;;;;23.80;56.70;;;;;;5093095;28;19909;-82
2020/12/23 00:30:26;;;;;;;;;;;24.00;55.80;;;;;;5110475;28;19916;-82
2020/12/23 00:32:53;;;;;;;;;;;24.00;57.00;;;;;;5113554;28;19908;-82
2020/12/23 00:35:19;;;;;;;;;;;24.30;55.50;;;;;;5113196;28;19907;-83
2020/12/23 00:37:46;;;;;;;;;;;24.40;56.20;;;;;;5113271;28;19941;-82
2020/12/23 00:40:12;;;;;;;;;;;24.60;55.10;;;;;;5112968;28;19908;-81
2020/12/23 00:42:39;;;;;;;;;;;24.90;52.90;;;;;;5113477;28;19908;-82
2020/12/23 00:45:06;;;;;;;;;;;24.90;52.80;;;;;;5113592;28;19908;-83
2020/12/23 00:47:33;;;;;;;;;;;25.10;53.50;;;;;;5113157;28;19912;-82
2020/12/23 00:49:59;;;;;;;;;;;25.30;52.90;;;;;;5113214;28;19953;-82
2020/12/23 00:52:26;;;;;;;;;;;25.50;52.60;;;;;;5113312;28;19947;-80
2020/12/23 00:54:52;;;;;;;;;;;25.80;51.20;;;;;;5113638;28;19908;-81
2020/12/23 00:57:19;;;;;;;;;;;26.10;51.30;;;;;;5113928;28;19927;-81
2020/12/23 00:59:46;;;;;;;;;;;26.10;51.60;;;;;;5114717;28;19919;-83
2020/12/23 01:02:13;;;;;;;;;;;25.90;50.70;;;;;;5095567;28;19916;-81
2020/12/23 01:04:40;;;;;;;;;;;25.80;51.20;;;;;;5113996;27;19927;-83
2020/12/23 01:07:08;;;;;;;;;;;25.70;53.10;;;;;;5112991;28;19964;-81
2020/12/23 01:09:34;;;;;;;;;;;25.80;52.00;;;;;;5117695;28;19911;-76
2020/12/23 01:12:01;;;;;;;;;;;25.60;53.40;;;;;;5145764;27;19911;-78
2020/12/23 01:14:28;;;;;;;;;;;25.80;52.40;;;;;;5137420;27;20157;-81
2020/12/23 01:16:54;;;;;;;;;;;26.00;53.40;;;;;;5136000;27;19961;-81
2020/12/23 01:19:23;;;;;;;;;;;26.10;52.20;;;;;;5133537;27;19952;-82
2020/12/23 01:21:50;;;;;;;;;;;26.30;51.80;;;;;;5136075;27;20306;-82
2020/12/23 01:24:17;;;;;;;;;;;26.50;50.70;;;;;;5134155;27;19912;-81
2020/12/23 01:26:43;;;;;;;;;;;26.10;51.30;;;;;;5131979;27;19911;-83
2020/12/23 01:29:10;;;;;;;;;;;25.90;50.70;;;;;;5132435;27;19938;-79
2020/12/23 01:31:40;;;;;;;;;;;25.70;51.10;;;;;;5132008;27;20477;-81
2020/12/23 01:34:07;;;;;;;;;;;25.60;51.70;;;;;;5113934;27;19915;-82
2020/12/23 01:36:33;;;;;;;;;;;25.90;51.10;;;;;;5132607;27;20284;-82
2020/12/23 01:39:00;;;;;;;;;;;25.70;51.70;;;;;;5132250;28;19918;-83
2020/12/23 01:41:27;;;;;;;;;;;25.40;52.90;;;;;;5132321;28;19916;-81
2020/12/23 01:43:54;;;;;;;;;;;25.10;54.40;;;;;;5114662;28;19991;-81
2020/12/23 01:46:28;;;;;;;;;;;25.20;53.00;;;;;;5132844;28;19950;-80
2020/12/23 01:48:55;;;;;;;;;;;25.10;52.90;;;;;;5130100;28;19937;-80
2020/12/23 01:51:22;;;;;;;;;;;25.20;54.80;;;;;;5132067;28;19923;-82
2020/12/23 01:53:56;;;;;;;;;;;25.50;56.00;;;;;;5132578;28;19919;-83
2020/12/23 01:56:22;;;;;;;;;;;25.50;56.00;;;;;;5132881;28;19974;-83
2020/12/23 01:58:49;;;;;;;;;;;25.40;57.00;;;;;;5132907;28;19907;-84
2020/12/23 02:01:20;;;;;;;;;;;25.20;57.50;;;;;;5132460;28;19961;-81
2020/12/23 02:03:50;;;;;;;;;;;25.30;57.50;;;;;;5133598;28;19907;-89
2020/12/23 02:06:17;;;;;;;;;;;25.10;57.50;;;;;;5133459;28;19941;-84
2020/12/23 02:08:48;;;;;;;;;;;25.10;58.50;;;;;;5133609;27;19911;-81
2020/12/23 02:11:14;;;;;;;;;;;25.30;58.00;;;;;;5132818;27;19908;-86
2020/12/23 02:13:45;;;;;;;;;;;25.30;57.20;;;;;;5134639;27;19911;-85
2020/12/23 02:16:14;;;;;;;;;;;25.40;57.80;;;;;;5114182;28;19916;-83
2020/12/23 02:18:43;;;;;;;;;;;25.20;58.20;;;;;;5119512;28;19919;-90
2020/12/23 02:21:10;;;;;;;;;;;25.20;59.30;;;;;;5122834;28;19923;-90
2020/12/23 02:23:36;;;;;;;;;;;25.10;58.50;;;;;;5138292;27;19962;-91
2020/12/23 02:26:03;;;;;;;;;;;25.00;59.30;;;;;;5142099;27;19908;-92
2020/12/23 02:28:30;;;;;;;;;;;25.10;59.90;;;;;;5143347;27;19908;-94
2020/12/23 02:30:59;;;;;;;;;;;25.20;58.70;;;;;;5137469;28;19911;-83
2020/12/23 02:33:25;;;;;;;;;;;25.30;57.90;;;;;;5134682;27;19911;-84
2020/12/23 02:35:52;;;;;;;;;;;24.90;58.10;;;;;;5133953;27;19979;-84
2020/12/23 02:38:19;;;;;;;;;;;24.90;59.30;;;;;;5135989;27;19915;-84
2020/12/23 02:40:46;;;;;;;;;;;24.90;58.90;;;;;;5137882;27;19987;-84
2020/12/23 02:43:12;;;;;;;;;;;24.90;58.90;;;;;;5138884;27;19912;-87
2020/12/23 02:45:39;;;;;;;;;;;24.90;60.00;;;;;;5136190;27;20289;-85
2020/12/23 02:48:06;;;;;;;;;;;24.90;59.30;;;;;;5137615;27;19915;-83
2020/12/23 02:50:32;;;;;;;;;;;24.80;57.50;;;;;;5137044;27;19927;-83
2020/12/23 02:52:59;;;;;;;;;;;24.60;58.10;;;;;;5134186;27;20293;-84
2020/12/23 02:55:26;;;;;;;;;;;24.50;59.60;;;;;;5137238;27;19922;-82
2020/12/23 02:57:52;;;;;;;;;;;24.60;58.00;;;;;;5138046;27;20006;-82
2020/12/23 03:00:19;;;;;;;;;;;24.70;59.60;;;;;;5138567;27;20013;-82
2020/12/23 03:02:46;;;;;;;;;;;24.70;57.50;;;;;;5119294;27;20010;-82
2020/12/23 03:05:12;;;;;;;;;;;24.50;58.00;;;;;;5118820;27;19919;-81
2020/12/23 03:07:39;;;;;;;;;;;24.50;59.70;;;;;;5136809;27;19918;-82
2020/12/23 03:10:06;;;;;;;;;;;24.60;59.70;;;;;;5136271;27;20399;-83
2020/12/23 03:12:32;;;;;;;;;;;24.70;57.40;;;;;;5136915;27;19957;-85
2020/12/23 03:14:59;;;;;;;;;;;24.60;57.90;;;;;;5135978;27;19973;-84
2020/12/23 03:17:25;;;;;;;;;;;24.60;56.70;;;;;;5117042;27;19922;-83
2020/12/23 03:19:52;;;;;;;;;;;24.60;56.80;;;;;;5136544;27;19908;-82
2020/12/23 03:22:20;;;;;;;;;;;24.80;57.20;;;;;;5137303;27;19972;-83
2020/12/23 03:24:46;;;;;;;;;;;24.70;57.00;;;;;;5136131;27;19960;-83
2020/12/23 03:27:17;;;;;;;;;;;24.50;57.30;;;;;;5136014;27;20373;-83
2020/12/23 03:29:46;;;;;;;;;;;24.50;55.80;;;;;;5133916;27;19946;-83
2020/12/23 03:32:14;;;;;;;;;;;24.50;57.40;;;;;;5131818;27;20020;-83
2020/12/23 03:34:40;;;;;;;;;;;24.60;56.60;;;;;;5135374;27;19914;-83
2020/12/23 03:37:07;;;;;;;;;;;24.40;57.50;;;;;;5136291;27;19915;-84
2020/12/23 03:39:34;;;;;;;;;;;24.50;58.20;;;;;;5114831;28;19908;-83
2020/12/23 03:42:00;;;;;;;;;;;24.50;59.20;;;;;;5114708;28;19908;-83
2020/12/23 03:44:27;;;;;;;;;;;24.40;58.60;;;;;;5115872;27;19911;-82
2020/12/23 03:46:54;;;;;;;;;;;24.20;59.60;;;;;;5136096;27;19954;-82
2020/12/23 03:49:20;;;;;;;;;;;24.20;60.90;;;;;;5134067;27;19907;-87
2020/12/23 03:51:47;;;;;;;;;;;24.40;58.90;;;;;;5134771;27;19962;-83
2020/12/23 03:54:13;;;;;;;;;;;24.50;59.00;;;;;;5116859;27;19912;-82
2020/12/23 03:56:40;;;;;;;;;;;24.50;59.60;;;;;;5134467;27;20018;-82
2020/12/23 03:59:07;;;;;;;;;;;24.50;60.50;;;;;;5135716;27;19916;-82
2020/12/23 04:01:33;;;;;;;;;;;24.40;60.80;;;;;;5134526;27;19907;-80
2020/12/23 04:04:00;;;;;;;;;;;24.20;61.10;;;;;;5134435;27;19907;-81
2020/12/23 04:06:27;;;;;;;;;;;24.30;61.50;;;;;;5134656;27;19915;-80
2020/12/23 04:08:53;;;;;;;;;;;24.40;58.30;;;;;;5133514;27;19908;-81
2020/12/23 04:11:20;;;;;;;;;;;24.10;58.60;;;;;;5133148;27;19908;-80
2020/12/23 04:13:47;;;;;;;;;;;24.10;59.00;;;;;;5134707;27;19914;-81
2020/12/23 04:16:14;;;;;;;;;;;24.40;59.00;;;;;;5133955;27;19916;-82
2020/12/23 04:18:40;;;;;;;;;;;24.50;60.20;;;;;;5133450;27;19952;-80
2020/12/23 04:21:07;;;;;;;;;;;24.60;60.60;;;;;;5134080;27;19908;-81
2020/12/23 04:23:36;;;;;;;;;;;24.60;58.20;;;;;;5134472;27;19923;-81
2020/12/23 04:26:03;;;;;;;;;;;24.50;56.20;;;;;;5133868;27;19908;-81
2020/12/23 04:28:30;;;;;;;;;;;24.40;57.00;;;;;;5134419;27;19911;-79
2020/12/23 04:30:56;;;;;;;;;;;24.20;57.00;;;;;;5134394;27;19914;-80
2020/12/23 04:33:24;;;;;;;;;;;24.20;57.60;;;;;;5133747;27;19912;-81
2020/12/23 04:35:51;;;;;;;;;;;24.30;58.10;;;;;;5133875;27;19907;-81
2020/12/23 04:38:20;;;;;;;;;;;24.40;56.10;;;;;;5134409;27;19911;-81
2020/12/23 04:40:47;;;;;;;;;;;24.40;56.50;;;;;;5134016;27;20007;-81
2020/12/23 04:43:14;;;;;;;;;;;24.40;57.10;;;;;;5133933;27;20320;-82
2020/12/23 04:45:40;;;;;;;;;;;24.10;55.50;;;;;;5133407;27;19976;-80
2020/12/23 04:48:08;;;;;;;;;;;24.00;56.20;;;;;;5133542;27;20336;-80
2020/12/23 04:50:34;;;;;;;;;;;24.20;56.80;;;;;;5133510;27;20281;-80
2020/12/23 04:53:01;;;;;;;;;;;24.20;54.60;;;;;;5133994;27;19946;-81
2020/12/23 04:55:28;;;;;;;;;;;24.20;57.10;;;;;;5133397;27;20363;-82
2020/12/23 04:57:56;;;;;;;;;;;24.30;57.80;;;;;;5133307;27;20380;-85
2020/12/23 05:00:24;;;;;;;;;;;24.30;57.80;;;;;;5114769;27;19907;-82
2020/12/23 05:02:51;;;;;;;;;;;24.40;57.50;;;;;;5134033;27;19907;-82
2020/12/23 05:05:20;;;;;;;;;;;24.30;56.80;;;;;;5103544;28;19973;-83
2020/12/23 05:07:47;;;;;;;;;;;24.20;56.20;;;;;;5095982;28;19914;-81
2020/12/23 05:10:14;;;;;;;;;;;24.20;56.00;;;;;;5113308;28;19918;-82
2020/12/23 05:12:41;;;;;;;;;;;24.10;57.40;;;;;;5095438;28;19915;-81
2020/12/23 05:15:08;;;;;;;;;;;24.10;57.40;;;;;;5094959;28;19931;-81
2020/12/23 05:17:38;;;;;;;;;;;24.10;57.70;;;;;;5112606;28;19920;-84
2020/12/23 05:20:07;;;;;;;;;;;24.00;57.30;;;;;;5112940;28;20044;-83
2020/12/23 05:22:34;;;;;;;;;;;24.00;57.70;;;;;;5113384;28;19951;-82
2020/12/23 05:25:01;;;;;;;;;;;24.00;58.50;;;;;;5113858;28;19911;-82
2020/12/23 05:27:31;;;;;;;;;;;24.00;58.00;;;;;;5112171;28;19973;-82
2020/12/23 05:29:58;;;;;;;;;;;24.00;57.90;;;;;;5112344;28;20061;-81
2020/12/23 05:32:25;;;;;;;;;;;24.00;54.90;;;;;;5112650;28;19908;-79
2020/12/23 05:34:53;;;;;;;;;;;23.80;56.40;;;;;;5094337;28;19947;-83
2020/12/23 05:37:20;;;;;;;;;;;23.80;58.70;;;;;;5112437;28;19916;-79
2020/12/23 05:39:47;;;;;;;;;;;23.80;58.00;;;;;;5112132;28;19919;-80
2020/12/23 05:42:14;;;;;;;;;;;23.70;56.00;;;;;;5111673;28;19912;-79
2020/12/23 05:44:41;;;;;;;;;;;23.60;57.30;;;;;;5112923;28;20322;-80
2020/12/23 05:47:08;;;;;;;;;;;23.60;58.90;;;;;;5112612;28;20053;-80
2020/12/23 05:49:38;;;;;;;;;;;23.60;59.60;;;;;;5093884;28;19908;-86
2020/12/23 05:52:05;;;;;;;;;;;23.60;58.90;;;;;;5110675;28;19912;-80
2020/12/23 05:54:31;;;;;;;;;;;23.80;57.50;;;;;;5110408;28;19972;-79
2020/12/23 05:57:03;;;;;;;;;;;23.80;58.30;;;;;;5110067;28;19970;-81
2020/12/23 05:59:29;;;;;;;;;;;23.70;60.00;;;;;;5110126;28;19908;-81
2020/12/23 06:01:57;;;;;;;;;;;23.50;60.60;;;;;;5110601;28;19908;-80
2020/12/23 06:04:24;;;;;;;;;;;23.30;60.20;;;;;;5097901;28;19994;-83
2020/12/23 06:06:53;;;;;;;;;;;23.20;62.20;;;;;;5131518;28;19912;-85
2020/12/23 06:09:22;;;;;;;;;;;23.00;64.40;;;;;;5131516;27;19911;-80
2020/12/23 06:11:55;;;;;;;;;;;23.00;64.20;;;;;;5131988;27;20388;-80
2020/12/23 06:14:25;;;;;;;;;;;23.20;58.30;;;;;;5144467;27;19908;-79
2020/12/23 06:17:02;;;;;;;;;;;23.20;60.80;;;;;;5135730;27;19923;-79
2020/12/23 06:19:38;;;;;;;;;;;23.30;60.30;;;;;;5115862;28;20374;-78
2020/12/23 06:22:06;;;;;;;;;;;23.30;61.20;;;;;;5121231;27;20273;-80
2020/12/23 06:24:33;;;;;;;;;;;23.20;61.60;;;;;;5133565;27;19911;-79
2020/12/23 06:27:01;;;;;;;;;;;23.20;62.80;;;;;;5135573;27;19991;-81
2020/12/23 06:29:29;;;;;;;;;;;23.20;63.10;;;;;;5136994;27;19918;-81
2020/12/23 06:31:58;;;;;;;;;;;23.10;63.30;;;;;;5116788;27;19960;-80
2020/12/23 06:34:27;;;;;;;;;;;23.00;65.40;;;;;;5135335;27;19911;-79
2020/12/23 06:36:55;;;;;;;;;;;23.00;65.10;;;;;;5136901;27;19927;-80
2020/12/23 06:39:25;;;;;;;;;;;23.00;66.40;;;;;;5118463;27;19933;-82
2020/12/23 06:42:15;;;;;;;;;;;23.00;66.30;;;;;;5137469;27;19918;-78
2020/12/23 06:44:44;;;;;;;;;;;23.10;67.60;;;;;;5135876;27;19938;-79
2020/12/23 06:47:30;;;;;;;;;;;23.00;66.80;;;;;;5136335;27;19968;-82
2020/12/23 06:50:00;;;;;;;;;;;23.00;68.70;;;;;;5139865;27;19947;-85
2020/12/23 06:52:27;;;;;;;;;;;22.90;69.30;;;;;;5137401;27;19914;-86
2020/12/23 06:55:03;;;;;;;;;;;22.80;71.60;;;;;;5138021;27;19912;-88
2020/12/23 06:57:38;;;;;;;;;;;22.80;72.40;;;;;;5140850;27;19940;-82
2020/12/23 07:00:05;;;;;;;;;;;22.70;71.80;;;;;;5137783;27;19911;-87
2020/12/23 07:02:33;;;;;;;;;;;22.60;71.50;;;;;;5137524;27;19908;-79
2020/12/23 07:05:00;;;;;;;;;;;22.50;73.90;;;;;;5117417;27;19928;-85
2020/12/23 07:07:33;;;;;;;;;;;22.50;75.70;;;;;;5135450;27;19911;-86
2020/12/23 07:10:19;;;;;;;;;;;22.30;76.70;;;;;;5134235;27;19908;-82
2020/12/23 07:12:52;;;;;;;;;;;22.30;76.30;;;;;;5134650;27;19912;-87
2020/12/23 07:15:22;;;;;;;;;;;22.30;76.90;;;;;;5136402;27;19994;-83
2020/12/23 07:17:50;;;;;;;;;;;22.20;77.00;;;;;;5122251;27;19930;-81
2020/12/23 07:20:21;;;;;;;;;;;22.30;77.10;;;;;;5138182;27;20357;-82
2020/12/23 07:22:49;;;;;;;;;;;22.30;77.40;;;;;;5133773;27;19964;-84
2020/12/23 07:25:26;;;;;;;;;;;22.20;77.00;;;;;;5133141;27;19911;-83
2020/12/23 07:27:57;;;;;;;;;;;22.20;76.30;;;;;;5132326;27;19911;-84
2020/12/23 07:30:24;;;;;;;;;;;22.20;76.20;;;;;;5127782;27;19918;-85
2020/12/23 07:33:09;;;;;;;;;;;22.10;76.70;;;;;;5111835;28;19911;-84
2020/12/23 07:35:37;;;;;;;;;;;22.00;75.80;;;;;;5113261;27;19918;-84
2020/12/23 07:38:05;;;;;;;;;;;22.00;75.50;;;;;;5113765;28;20378;-83
2020/12/23 07:40:33;;;;;;;;;;;22.00;75.30;;;;;;5113722;28;20471;-83
2020/12/23 07:43:00;;;;;;;;;;;21.90;75.50;;;;;;5114555;28;20001;-82
2020/12/23 07:45:28;;;;;;;;;;;21.80;76.10;;;;;;5116094;27;20382;-84
2020/12/23 07:48:05;;;;;;;;;;;21.90;76.60;;;;;;5134623;27;19911;-84
2020/12/23 07:50:33;;;;;;;;;;;21.90;76.00;;;;;;5134226;27;19908;-84
2020/12/23 07:53:20;;;;;;;;;;;21.80;76.80;;;;;;5133438;27;19911;-82
2020/12/23 07:55:51;;;;;;;;;;;21.80;77.50;;;;;;5118761;27;19911;-82
2020/12/23 07:58:17;;;;;;;;;;;21.70;77.40;;;;;;5132718;27;19915;-84
2020/12/23 08:00:44;;;;;;;;;;;21.80;77.60;;;;;;5133535;27;20304;-83
2020/12/23 08:03:11;;;;;;;;;;;21.80;77.50;;;;;;5133142;27;19941;-83
2020/12/23 08:05:38;;;;;;;;;;;21.70;78.10;;;;;;5118495;27;19927;-84
2020/12/23 08:08:08;;;;;;;;;;;21.60;78.90;;;;;;5107211;28;20405;-85
2020/12/23 08:10:35;;;;;;;;;;;21.50;79.70;;;;;;5094483;28;19908;-83
2020/12/23 08:13:07;;;;;;;;;;;21.60;79.90;;;;;;5111306;28;20323;-83
2020/12/23 08:15:34;;;;;;;;;;;21.60;80.20;;;;;;5114235;28;19912;-84
2020/12/23 08:18:05;;;;;;;;;;;21.60;80.50;;;;;;5114298;28;19933;-85
2020/12/23 08:20:32;;;;;;;;;;;21.60;81.20;;;;;;5095503;28;20373;-85
2020/12/23 08:23:00;;;;;;;;;;;21.60;81.30;;;;;;5096067;28;19915;-85
2020/12/23 08:25:27;;;;;;;;;;;21.60;80.40;;;;;;5114148;28;20014;-84
2020/12/23 08:27:56;;;;;;;;;;;21.60;80.10;;;;;;5096673;28;19970;-84
2020/12/23 08:30:29;;;;;;;;;;;21.60;80.10;;;;;;5114571;28;19907;-85
2020/12/23 08:32:59;;;;;;;;;;;21.60;79.90;;;;;;5113917;28;19916;-85
2020/12/23 08:35:27;;;;;;;;;;;21.60;79.20;;;;;;5113886;28;19912;-84
2020/12/23 08:37:54;;;;;;;;;;;21.50;77.20;;;;;;5114148;28;19941;-87
2020/12/23 08:40:27;;;;;;;;;;;21.40;77.80;;;;;;5114009;28;19912;-84
2020/12/23 08:42:58;;;;;;;;;;;21.50;77.80;;;;;;5115720;28;19916;-86
2020/12/23 08:45:26;;;;;;;;;;;21.40;78.20;;;;;;5113774;28;19919;-85
2020/12/23 08:47:53;;;;;;;;;;;21.40;78.20;;;;;;5114384;28;19911;-85
2020/12/23 08:50:21;;;;;;;;;;;21.40;78.40;;;;;;5112493;28;19919;-87
2020/12/23 08:52:51;;;;;;;;;;;21.40;78.40;;;;;;5114278;28;19908;-89
2020/12/23 08:55:23;;;;;;;;;;;21.40;78.50;;;;;;5114110;28;19954;-89
2020/12/23 08:58:10;;;;;;;;;;;21.40;79.00;;;;;;5114068;28;20258;-88
2020/12/23 09:00:36;;;;;;;;;;;21.40;79.00;;;;;;5098204;28;19922;-87
2020/12/23 09:03:03;;;;;;;;;;;21.40;78.80;;;;;;5116565;27;19911;-90
2020/12/23 09:05:30;;;;;;;;;;;21.40;79.10;;;;;;5121949;27;20014;-90
2020/12/23 09:08:04;;;;;;;;;;;21.30;79.30;;;;;;5114631;28;19944;-91
2020/12/23 09:10:31;;;;;;;;;;;21.20;80.00;;;;;;5113190;28;19914;-88
2020/12/23 09:13:26;;;;;;;;;;;21.20;79.80;;;;;;5114959;28;19972;-84
2020/12/23 09:15:54;;;;;;;;;;;21.20;80.40;;;;;;5092527;28;19943;-89
2020/12/23 09:18:20;;;;;;;;;;;21.20;81.30;;;;;;5138641;28;19941;-86
2020/12/23 09:20:56;;;;;;;;;;;21.20;81.10;;;;;;5126041;28;19911;-92
2020/12/23 09:23:22;;;;;;;;;;;21.20;81.20;;;;;;5111848;28;19912;-86
2020/12/23 09:25:49;;;;;;;;;;;21.20;80.40;;;;;;5115626;28;19911;-85
2020/12/23 09:28:16;;;;;;;;;;;21.20;80.70;;;;;;5114162;28;19966;-83
2020/12/23 09:30:49;;;;;;;;;;;21.20;81.20;;;;;;5114354;28;19912;-86
2020/12/23 09:33:20;;;;;;;;;;;21.10;81.40;;;;;;5111990;28;19933;-87
2020/12/23 09:35:47;;;;;;;;;;;21.20;81.80;;;;;;5114726;28;19911;-94
2020/12/23 09:38:27;;;;;;;;;;;21.20;81.70;;;;;;5114157;28;19926;-86
2020/12/23 09:40:55;;;;;;;;;;;21.10;82.10;;;;;;5113638;28;20383;-89
2020/12/23 09:43:23;;;;;;;;;;;21.10;81.90;;;;;;5110916;28;19918;-86
2020/12/23 09:45:50;;;;;;;;;;;21.10;82.20;;;;;;5113714;28;19971;-80
2020/12/23 09:48:17;;;;;;;;;;;21.10;82.30;;;;;;5115634;28;19908;-86
2020/12/23 09:50:44;;;;;;;;;;;21.10;82.60;;;;;;5117716;27;19990;-83
2020/12/23 09:53:11;;;;;;;;;;;21.10;82.00;;;;;;5116902;28;20329;-87
2020/12/23 09:55:44;;;;;;;;;;;21.10;82.60;;;;;;5117816;28;20405;-86
2020/12/23 09:58:11;;;;;;;;;;;21.00;83.00;;;;;;5118032;28;19916;-82
2020/12/23 10:00:38;;;;;;;;;;;21.00;82.70;;;;;;5117002;28;19939;-82
2020/12/23 10:03:05;;;;;;;;;;;21.00;82.00;;;;;;5117013;28;19934;-82
2020/12/23 10:05:32;;;;;;;;;;;21.00;83.50;;;;;;5131262;27;20495;-80
2020/12/23 10:07:59;;;;;;;;;;;21.00;82.60;;;;;;5138522;27;19980;-83
2020/12/23 10:10:25;;;;;;;;;;;21.00;83.10;;;;;;5135796;27;19907;-81
2020/12/23 10:12:52;;;;;;;;;;;21.00;83.70;;;;;;5118008;28;19907;-81
2020/12/23 10:15:19;;;;;;;;;;;21.00;83.10;;;;;;5129402;27;19964;-83
2020/12/23 10:17:46;;;;;;;;;;;20.90;83.40;;;;;;5120553;27;19920;-83
2020/12/23 10:20:12;;;;;;;;;;;20.90;83.60;;;;;;5123119;27;20277;-81
2020/12/23 10:22:39;;;;;;;;;;;20.90;84.50;;;;;;5135700;27;20010;-79
2020/12/23 10:25:07;;;;;;;;;;;21.00;83.70;;;;;;5127755;27;19958;-81
2020/12/23 10:27:33;;;;;;;;;;;20.90;84.20;;;;;;5130787;27;20019;-81
2020/12/23 10:30:00;;;;;;;;;;;20.90;84.00;;;;;;5108016;27;19912;-79
2020/12/23 10:32:30;;;;;;;;;;;20.90;84.60;;;;;;5129804;27;20000;-81
2020/12/23 10:35:00;;;;;;;;;;;20.90;84.30;;;;;;5118354;27;19918;-82
2020/12/23 10:37:26;;;;;;;;;;;20.90;84.10;;;;;;5121456;27;19927;-82
2020/12/23 10:39:53;;;;;;;;;;;20.80;84.70;;;;;;5123528;27;19957;-81
2020/12/23 10:42:20;;;;;;;;;;;20.90;84.40;;;;;;5124128;27;20339;-81
2020/12/23 10:44:47;;;;;;;;;;;20.90;84.80;;;;;;5134802;27;19912;-83
2020/12/23 10:47:16;;;;;;;;;;;20.90;84.00;;;;;;5128681;27;19930;-83
2020/12/23 10:49:43;;;;;;;;;;;20.90;84.40;;;;;;5132448;27;19919;-81
2020/12/23 10:52:09;;;;;;;;;;;21.00;83.80;;;;;;5116531;28;19912;-83
2020/12/23 10:54:36;;;;;;;;;;;20.90;83.60;;;;;;5116427;28;19961;-84
2020/12/23 10:57:03;;;;;;;;;;;20.90;84.30;;;;;;5116428;28;19928;-80
2020/12/23 10:59:29;;;;;;;;;;;20.90;84.10;;;;;;5115492;28;19952;-82
2020/12/23 11:01:56;;;;;;;;;;;20.80;83.70;;;;;;5116592;28;19916;-82
2020/12/23 11:04:23;;;;;;;;;;;20.80;84.40;;;;;;5120792;27;19911;-83
2020/12/23 11:06:50;;;;;;;;;;;20.70;84.10;;;;;;5136670;27;19915;-81
2020/12/23 11:09:17;;;;;;;;;;;20.70;84.70;;;;;;5136497;27;19914;-83
2020/12/23 11:11:48;;;;;;;;;;;20.70;85.30;;;;;;5136884;27;19915;-83
2020/12/23 11:14:15;;;;;;;;;;;20.70;84.70;;;;;;5136325;27;20366;-82
2020/12/23 11:16:42;;;;;;;;;;;20.70;84.30;;;;;;5136075;27;19911;-83
2020/12/23 11:19:08;;;;;;;;;;;20.70;84.80;;;;;;5136462;27;19911;-83
2020/12/23 11:21:35;;;;;;;;;;;20.60;84.90;;;;;;5136245;27;20378;-84
2020/12/23 11:24:02;;;;;;;;;;;20.60;85.30;;;;;;5136049;27;19907;-83
2020/12/23 11:26:28;;;;;;;;;;;20.60;85.50;;;;;;5135954;27;19912;-83
2020/12/23 11:28:55;;;;;;;;;;;20.60;85.60;;;;;;5136466;27;20397;-84
2020/12/23 11:31:21;;;;;;;;;;;20.60;85.40;;;;;;5136166;27;19911;-82
2020/12/23 11:33:51;;;;;;;;;;;20.50;85.20;;;;;;5136518;27;20289;-82
2020/12/23 11:36:18;;;;;;;;;;;20.50;84.70;;;;;;5133507;27;19911;-82
2020/12/23 11:38:44;;;;;;;;;;;20.50;85.20;;;;;;5103195;27;19915;-84
2020/12/23 11:41:11;;;;;;;;;;;20.40;85.60;;;;;;5114899;28;19927;-84
2020/12/23 11:43:40;;;;;;;;;;;20.40;86.30;;;;;;5114863;28;20379;-84
2020/12/23 11:46:10;;;;;;;;;;;20.40;85.40;;;;;;5114527;28;19919;-85
2020/12/23 11:48:37;;;;;;;;;;;20.50;85.80;;;;;;5116109;28;19919;-84
2020/12/23 11:51:06;;;;;;;;;;;20.50;85.50;;;;;;5116152;28;20425;-84
2020/12/23 11:53:33;;;;;;;;;;;20.60;85.30;;;;;;5115177;28;19908;-82
2020/12/23 11:55:59;;;;;;;;;;;20.60;85.20;;;;;;5114148;28;19964;-83
2020/12/23 11:58:26;;;;;;;;;;;20.60;85.10;;;;;;5113359;27;20350;-82
2020/12/23 12:00:53;;;;;;;;;;;20.60;85.20;;;;;;5135742;27;19908;-82
2020/12/23 12:03:20;;;;;;;;;;;20.60;85.50;;;;;;5118434;27;19972;-82
2020/12/23 12:05:46;;;;;;;;;;;20.60;85.40;;;;;;5131691;27;19919;-81
2020/12/23 12:08:13;;;;;;;;;;;20.60;85.50;;;;;;5135862;27;19919;-82
2020/12/23 12:10:40;;;;;;;;;;;20.70;85.40;;;;;;5115273;27;19918;-84
2020/12/23 12:13:06;;;;;;;;;;;20.70;85.60;;;;;;5114681;28;20000;-83
2020/12/23 12:15:33;;;;;;;;;;;20.60;85.70;;;;;;5096216;28;19908;-80
2020/12/23 12:18:00;;;;;;;;;;;20.70;86.10;;;;;;5114619;28;19942;-91
2020/12/23 12:20:26;;;;;;;;;;;20.70;85.90;;;;;;5111516;27;20337;-85
2020/12/23 12:22:53;;;;;;;;;;;20.70;86.00;;;;;;5093494;28;20251;-86
2020/12/23 12:25:20;;;;;;;;;;;20.60;85.60;;;;;;5113752;28;19964;-84
2020/12/23 12:27:47;;;;;;;;;;;20.60;85.90;;;;;;5096144;28;20014;-83
2020/12/23 12:30:13;;;;;;;;;;;20.70;86.30;;;;;;5096218;28;19951;-83
2020/12/23 12:32:41;;;;;;;;;;;20.70;86.40;;;;;;5114712;28;19911;-83
2020/12/23 12:35:08;;;;;;;;;;;20.60;86.10;;;;;;5113891;28;19964;-83
2020/12/23 12:37:35;;;;;;;;;;;20.60;86.20;;;;;;5114282;28;20014;-84
2020/12/23 12:40:01;;;;;;;;;;;20.50;86.50;;;;;;5110069;28;19946;-84
2020/12/23 12:42:28;;;;;;;;;;;20.60;87.30;;;;;;5113310;28;19908;-84
2020/12/23 12:44:55;;;;;;;;;;;20.50;87.30;;;;;;5112521;28;19998;-84
2020/12/23 12:47:21;;;;;;;;;;;20.50;87.10;;;;;;5113324;28;19961;-84
2020/12/23 12:49:48;;;;;;;;;;;20.50;87.50;;;;;;5114358;28;19908;-84
2020/12/23 12:52:15;;;;;;;;;;;20.60;87.90;;;;;;5113527;28;20369;-84
2020/12/23 12:54:41;;;;;;;;;;;20.60;87.80;;;;;;5129701;27;19908;-84
2020/12/23 12:57:08;;;;;;;;;;;20.60;87.90;;;;;;5133135;27;20381;-84
2020/12/23 12:59:37;;;;;;;;;;;20.70;87.30;;;;;;5113784;28;19908;-84
2020/12/23 13:02:03;;;;;;;;;;;20.80;87.70;;;;;;5114082;28;19970;-84
2020/12/23 13:04:30;;;;;;;;;;;20.80;87.80;;;;;;5119901;27;20289;-84
2020/12/23 13:06:57;;;;;;;;;;;20.70;88.20;;;;;;5134758;27;19911;-84
2020/12/23 13:09:27;;;;;;;;;;;20.70;88.40;;;;;;5130905;27;20179;-85
2020/12/23 13:11:58;;;;;;;;;;;20.80;87.50;;;;;;5114013;28;19915;-84
2020/12/23 13:14:25;;;;;;;;;;;20.70;87.60;;;;;;5095600;28;19908;-84
2020/12/23 13:16:51;;;;;;;;;;;20.70;88.00;;;;;;5111514;28;19919;-84
2020/12/23 13:19:18;;;;;;;;;;;20.60;88.20;;;;;;5113372;28;19911;-84
2020/12/23 13:21:48;;;;;;;;;;;20.60;88.00;;;;;;5113916;28;19908;-84
2020/12/23 13:24:15;;;;;;;;;;;20.70;87.70;;;;;;5113351;28;19915;-84
2020/12/23 13:26:41;;;;;;;;;;;20.60;88.00;;;;;;5113816;28;19960;-84
2020/12/23 13:29:08;;;;;;;;;;;20.60;87.70;;;;;;5113872;28;19907;-83
2020/12/23 13:31:35;;;;;;;;;;;20.60;87.90;;;;;;5113573;28;19967;-83
2020/12/23 13:34:01;;;;;;;;;;;20.60;88.40;;;;;;5113778;28;19930;-83
2020/12/23 13:36:28;;;;;;;;;;;20.60;88.60;;;;;;5095442;28;19976;-83
2020/12/23 13:38:55;;;;;;;;;;;20.60;88.70;;;;;;5113764;28;19907;-83
2020/12/23 13:41:21;;;;;;;;;;;20.60;88.30;;;;;;5113054;28;19915;-83
2020/12/23 13:43:49;;;;;;;;;;;20.60;88.10;;;;;;5113409;28;19990;-83
2020/12/23 13:46:16;;;;;;;;;;;20.50;88.40;;;;;;5113608;28;19908;-83
2020/12/23 13:48:43;;;;;;;;;;;20.50;87.90;;;;;;5129818;28;20293;-83
2020/12/23 13:51:11;;;;;;;;;;;20.60;87.30;;;;;;5133807;28;20266;-83
2020/12/23 13:53:37;;;;;;;;;;;20.60;87.40;;;;;;5133919;28;19907;-84
2020/12/23 13:56:04;;;;;;;;;;;20.60;87.90;;;;;;5094768;28;20389;-84
2020/12/23 13:58:31;;;;;;;;;;;20.60;88.00;;;;;;5113453;28;19912;-84
2020/12/23 14:00:57;;;;;;;;;;;20.50;88.10;;;;;;5113276;28;19908;-84
2020/12/23 14:03:24;;;;;;;;;;;20.50;88.60;;;;;;5113108;28;19935;-84
2020/12/23 14:05:52;;;;;;;;;;;20.40;87.70;;;;;;5130061;28;19926;-84
2020/12/23 14:08:19;;;;;;;;;;;20.40;87.90;;;;;;5115394;28;19960;-84
2020/12/23 14:10:45;;;;;;;;;;;20.40;88.30;;;;;;5133990;28;19912;-84
2020/12/23 14:13:12;;;;;;;;;;;20.40;88.50;;;;;;5133281;28;19930;-84
2020/12/23 14:15:38;;;;;;;;;;;20.40;88.50;;;;;;5133686;28;20266;-84
2020/12/23 14:18:05;;;;;;;;;;;20.40;88.60;;;;;;5133842;28;19916;-84
2020/12/23 14:20:32;;;;;;;;;;;20.50;87.80;;;;;;5133688;28;19908;-83